Chilhowie, Virginia
Current Conditions -  °F | °C
As of 6:55 AM on Friday 19 Dec 2014 (Local Time) from KMKJ Reporting Station
Overcast Overcast  
Wind Chill: 25°   Ceiling: 4300
Heat Index: 34°   Visibility: 10mi
Dew Point: 17°   Wind: 13mph
Humidity: 50%   Direction: 290°WNW
Pressure: 30.13"   Gusts: NA
Location:  36.8°N, 81.68°W
Report Text: KMKJ 191155Z AUTO 29011KT 10SM OVC043 01/M09 A3013 RMK AO2 LTG DSNT W T00091086 10025 20008
Loading
Personal Weather Stations






























Interactive Weather Map New forecast layout! Learn more

10-Day Weather Forecast

Advertisements
Track Severe Weather on mobile